Time,TemperatureF,DewpointF,PressureIn,WindDirection,WindDirectionDegrees,WindSpeedMPH,WindSpeedGustMPH,Humidity,HourlyPrecipIn,Conditions,Clouds,dailyrainin,SolarRadiationWatts/m^2,SoftwareType,DateUTC
2013-11-02 00:04:00,43.0,40.0,-100.00,WNW,282,5.0,12.0,88,0.00,,,0.01,0.000000,,2013-11-02 05:04:00,
2013-11-02 00:42:00,41.0,39.0,-100.00,WNW,287,5.0,13.0,93,0.00,,,0.01,0.000000,,2013-11-02 05:42:00,
2013-11-02 00:52:00,41.0,39.0,-100.00,WNW,287,5.0,13.0,93,0.00,,,0.01,0.000000,,2013-11-02 05:52:00,
2013-11-02 01:02:00,41.0,39.0,-100.00,WNW,287,5.0,13.0,93,0.00,,,0.01,0.000000,,2013-11-02 06:02:00,
2013-11-02 01:43:00,42.0,40.0,-100.00,WNW,282,5.0,12.0,93,0.00,,,0.01,0.000000,,2013-11-02 06:43:00,
2013-11-02 01:52:00,42.0,40.0,-100.00,WNW,282,5.0,12.0,93,0.00,,,0.01,0.000000,,2013-11-02 06:52:00,
2013-11-02 02:03:00,42.0,40.0,-100.00,WNW,282,5.0,12.0,93,0.00,,,0.01,0.000000,,2013-11-02 07:03:00,
2013-11-02 02:42:00,44.0,42.0,-100.00,WNW,289,5.0,12.0,92,0.00,,,0.01,0.000000,,2013-11-02 07:42:00,
2013-11-02 02:52:00,44.0,42.0,-100.00,WNW,289,5.0,12.0,92,0.00,,,0.01,0.000000,,2013-11-02 07:52:00,
2013-11-02 03:02:00,44.0,42.0,-100.00,WNW,289,5.0,12.0,92,0.00,,,0.01,0.000000,,2013-11-02 08:02:00,
2013-11-02 03:42:00,44.0,41.0,-100.00,WNW,303,5.0,12.0,90,0.00,,,0.01,0.000000,,2013-11-02 08:42:00,
2013-11-02 03:52:00,44.0,41.0,-100.00,WNW,303,5.0,12.0,90,0.00,,,0.01,0.000000,,2013-11-02 08:52:00,
2013-11-02 04:02:00,44.0,41.0,-100.00,WNW,303,5.0,12.0,90,0.00,,,0.01,0.000000,,2013-11-02 09:02:00,
2013-11-02 04:43:00,44.0,40.0,-100.00,NW,308,7.0,14.0,87,0.00,,,0.01,0.000000,,2013-11-02 09:43:00,
2013-11-02 04:53:00,44.0,40.0,-100.00,NW,308,7.0,14.0,87,0.00,,,0.01,0.000000,,2013-11-02 09:53:00,
2013-11-02 05:03:00,44.0,40.0,-100.00,NW,308,7.0,14.0,87,0.00,,,0.01,0.000000,,2013-11-02 10:03:00,
2013-11-02 05:42:00,43.0,40.0,-100.00,NW,305,6.0,12.0,89,0.00,,,0.01,0.000000,,2013-11-02 10:42:00,
2013-11-02 05:53:00,43.0,40.0,-100.00,NW,305,6.0,12.0,89,0.00,,,0.01,0.000000,,2013-11-02 10:53:00,
2013-11-02 06:02:00,43.0,40.0,-100.00,NW,305,6.0,12.0,89,0.00,,,0.01,0.000000,,2013-11-02 11:02:00,
2013-11-02 06:42:00,42.0,39.0,-100.00,NW,307,6.0,12.0,89,0.00,,,0.01,0.000000,,2013-11-02 11:42:00,
2013-11-02 06:52:00,42.0,39.0,-100.00,NW,307,6.0,12.0,89,0.00,,,0.01,0.000000,,2013-11-02 11:52:00,
2013-11-02 07:02:00,42.0,39.0,-100.00,NW,307,6.0,12.0,89,0.00,,,0.01,0.000000,,2013-11-02 12:02:00,
2013-11-02 07:42:00,42.0,40.0,-100.00,WNW,296,4.0,11.0,94,0.00,,,0.01,0.000000,,2013-11-02 12:42:00,
2013-11-02 07:52:00,42.0,40.0,-100.00,WNW,296,4.0,11.0,94,0.00,,,0.01,0.000000,,2013-11-02 12:52:00,
2013-11-02 08:02:00,42.0,40.0,-100.00,WNW,296,4.0,11.0,94,0.00,,,0.01,0.000000,,2013-11-02 13:02:00,
2013-11-02 08:42:00,42.0,40.0,-100.00,WNW,303,5.0,9.0,93,0.00,,,0.01,2.000000,,2013-11-02 13:42:00,
2013-11-02 08:52:00,42.0,40.0,-100.00,WNW,303,5.0,9.0,93,0.00,,,0.01,2.000000,,2013-11-02 13:52:00,
2013-11-02 09:02:00,42.0,40.0,-100.00,WNW,303,5.0,9.0,93,0.00,,,0.01,2.000000,,2013-11-02 14:02:00,
2013-11-02 09:42:00,44.0,41.0,-100.00,NW,312,5.0,11.0,88,0.00,,,-99.99,54.000000,,2013-11-02 14:42:00,
2013-11-02 09:52:00,44.0,41.0,-100.00,NW,312,5.0,11.0,88,0.00,,,-99.99,54.000000,,2013-11-02 14:52:00,
2013-11-02 10:02:00,44.0,41.0,-100.00,NW,312,5.0,11.0,88,0.00,,,-99.99,54.000000,,2013-11-02 15:02:00,
2013-11-02 10:43:00,46.0,40.0,-100.00,NNW,327,9.0,16.0,79,0.00,,,0.01,141.000000,,2013-11-02 15:43:00,
2013-11-02 10:53:00,46.0,40.0,-100.00,NNW,327,9.0,16.0,79,0.00,,,0.01,141.000000,,2013-11-02 15:53:00,
2013-11-02 11:03:00,46.0,40.0,-100.00,NNW,327,9.0,16.0,79,0.00,,,0.01,141.000000,,2013-11-02 16:03:00,
2013-11-02 11:43:00,48.0,38.0,-100.00,NNW,330,8.0,19.0,68,0.00,,,0.01,294.000000,,2013-11-02 16:43:00,
2013-11-02 11:54:00,48.0,38.0,-100.00,NNW,330,8.0,19.0,68,0.00,,,0.01,294.000000,,2013-11-02 16:54:00,
2013-11-02 12:03:00,48.0,38.0,-100.00,NNW,330,8.0,19.0,68,0.00,,,0.01,294.000000,,2013-11-02 17:03:00,
2013-11-02 12:43:00,51.0,37.0,-100.00,WNW,302,6.0,15.0,58,0.00,,,0.01,409.000000,,2013-11-02 17:43:00,
2013-11-02 12:53:00,51.0,37.0,-100.00,WNW,302,6.0,15.0,58,0.00,,,0.01,409.000000,,2013-11-02 17:53:00,
2013-11-02 13:02:00,51.0,37.0,-100.00,WNW,302,6.0,15.0,58,0.00,,,0.01,409.000000,,2013-11-02 18:02:00,
2013-11-02 13:42:00,51.0,34.0,-100.00,NW,306,8.0,17.0,52,0.00,,,0.01,438.000000,,2013-11-02 18:42:00,
2013-11-02 13:53:00,51.0,34.0,-100.00,NW,306,8.0,17.0,52,0.00,,,0.01,438.000000,,2013-11-02 18:53:00,
2013-11-02 14:01:00,51.0,34.0,-100.00,NW,306,8.0,17.0,52,0.00,,,0.01,438.000000,,2013-11-02 19:01:00,
2013-11-02 14:42:00,53.0,32.0,-100.00,NW,317,8.0,17.0,44,0.00,,,0.01,527.000000,,2013-11-02 19:42:00,
2013-11-02 14:52:00,53.0,32.0,-100.00,NW,317,8.0,17.0,44,0.00,,,0.01,527.000000,,2013-11-02 19:52:00,
2013-11-02 15:02:00,53.0,32.0,-100.00,NW,317,8.0,17.0,44,0.00,,,0.01,527.000000,,2013-11-02 20:02:00,
2013-11-02 15:43:00,54.0,31.0,-100.00,NW,306,7.0,17.0,41,0.00,,,0.01,479.000000,,2013-11-02 20:43:00,
2013-11-02 15:53:00,54.0,31.0,-100.00,NW,306,7.0,17.0,41,0.00,,,0.01,479.000000,,2013-11-02 20:53:00,
2013-11-02 16:02:00,54.0,31.0,-100.00,NW,306,7.0,17.0,41,0.00,,,0.01,479.000000,,2013-11-02 21:02:00,
2013-11-02 16:44:00,54.0,30.0,-100.00,NW,308,7.0,14.0,40,0.00,,,0.01,350.000000,,2013-11-02 21:44:00,
2013-11-02 16:54:00,54.0,30.0,-100.00,NW,308,7.0,14.0,40,0.00,,,0.01,350.000000,,2013-11-02 21:54:00,
2013-11-02 17:03:00,54.0,30.0,-100.00,NW,308,7.0,14.0,40,0.00,,,0.01,350.000000,,2013-11-02 22:03:00,
2013-11-02 17:44:00,53.0,30.0,-100.00,WNW,299,5.0,13.0,41,0.00,,,0.01,228.000000,,2013-11-02 22:44:00,
2013-11-02 17:54:00,53.0,30.0,-100.00,WNW,299,5.0,13.0,41,0.00,,,0.01,228.000000,,2013-11-02 22:54:00,
2013-11-02 18:02:00,53.0,30.0,-100.00,WNW,299,5.0,13.0,41,0.00,,,0.01,228.000000,,2013-11-02 23:02:00,
2013-11-02 18:42:00,48.0,30.0,-100.00,WNW,292,3.0,10.0,50,0.00,,,0.01,30.000000,,2013-11-02 23:42:00,
2013-11-02 18:52:00,48.0,30.0,-100.00,WNW,292,3.0,10.0,50,0.00,,,0.01,30.000000,,2013-11-02 23:52:00,
2013-11-02 19:01:00,48.0,30.0,-100.00,WNW,292,3.0,10.0,50,0.00,,,0.01,30.000000,,2013-11-03 00:01:00,
2013-11-02 19:42:00,44.0,30.0,-100.00,West,274,0.0,4.0,57,0.00,,,0.01,1.000000,,2013-11-03 00:42:00,
2013-11-02 19:52:00,44.0,30.0,-100.00,West,274,0.0,4.0,57,0.00,,,0.01,1.000000,,2013-11-03 00:52:00,
2013-11-02 20:02:00,44.0,30.0,-100.00,West,274,0.0,4.0,57,0.00,,,0.01,1.000000,,2013-11-03 01:02:00,
2013-11-02 20:42:00,41.0,32.0,-100.00,SSW,196,0.0,0.0,69,0.00,,,0.01,0.000000,,2013-11-03 01:42:00,
2013-11-02 20:52:00,41.0,32.0,-100.00,SSW,196,0.0,0.0,69,0.00,,,0.01,0.000000,,2013-11-03 01:52:00,
2013-11-02 21:02:00,41.0,32.0,-100.00,SSW,196,0.0,0.0,69,0.00,,,0.01,0.000000,,2013-11-03 02:02:00,
2013-11-02 21:43:00,39.0,31.0,-100.00,SSE,168,0.0,5.0,74,0.00,,,0.00,0.000000,,2013-11-03 02:43:00,
2013-11-02 21:52:00,39.0,31.0,-100.00,SSE,168,0.0,5.0,74,0.00,,,0.00,0.000000,,2013-11-03 02:52:00,
2013-11-02 22:02:00,39.0,31.0,-100.00,SSE,168,0.0,5.0,74,0.00,,,0.00,0.000000,,2013-11-03 03:02:00,
2013-11-02 22:45:00,39.0,32.0,-100.00,SW,221,1.0,4.0,77,0.00,,,0.00,0.000000,,2013-11-03 03:45:00,
2013-11-02 22:54:00,39.0,32.0,-100.00,SW,221,1.0,4.0,77,0.00,,,0.00,0.000000,,2013-11-03 03:54:00,
2013-11-02 23:02:00,-999.0,-99.9,-100.00,SW,221,1.0,4.0,-999,-99.99,,,-99.99,0.000000,,2013-11-03 04:02:00,
2013-11-02 23:44:00,39.0,32.0,-100.00,SSW,196,3.0,6.0,77,0.00,,,0.00,0.000000,,2013-11-03 04:44:00,
2013-11-02 23:52:00,39.0,32.0,-100.00,SSW,196,3.0,6.0,77,0.00,,,0.00,0.000000,,2013-11-03 04:52:00,